Time;durP1;ratioP1;P1;durP2;ratioP2;P2;SDS_P1;SDS_P2;PMS_P1;PMS_P2;Temp;Humidity;BMP_temperature;BMP_pressure;BME280_temperature;BME280_humidity;BME280_pressure;Samples;Min_cycle;Max_cycle;Signal;HPM_P1;HPM_P2
2023/07/24 00:00:24;;;;;;;6.53;4.87;;;17.90;99.90;;;;;;5077023;28;20514;-61
2023/07/24 00:02:53;;;;;;;6.77;5.33;;;17.80;99.90;;;;;;5473095;22;20493;-62
2023/07/24 00:05:20;;;;;;;5.80;4.63;;;17.80;99.90;;;;;;5077475;28;20453;-62
2023/07/24 00:07:47;;;;;;;5.00;4.50;;;17.90;99.90;;;;;;5077413;28;20545;-62
2023/07/24 00:10:15;;;;;;;6.03;4.87;;;17.80;99.90;;;;;;5077295;28;20873;-62
2023/07/24 00:12:43;;;;;;;5.30;4.63;;;17.80;99.90;;;;;;5077117;28;20431;-61
2023/07/24 00:15:11;;;;;;;4.90;4.20;;;17.80;99.90;;;;;;5076949;28;20861;-62
2023/07/24 00:17:38;;;;;;;5.20;4.70;;;17.80;99.90;;;;;;5076743;28;20958;-62
2023/07/24 00:20:07;;;;;;;7.93;5.30;;;17.80;99.90;;;;;;5343479;22;20503;-60
2023/07/24 00:22:34;;;;;;;7.03;4.70;;;17.80;99.90;;;;;;5077458;28;20432;-60
2023/07/24 00:25:02;;;;;;;4.80;3.93;;;17.80;99.90;;;;;;5077090;28;20431;-60
2023/07/24 00:27:29;;;;;;;6.67;5.03;;;17.80;99.90;;;;;;5077018;28;20469;-60
2023/07/24 00:29:57;;;;;;;6.03;5.00;;;17.70;99.90;;;;;;5077151;28;20442;-60
2023/07/24 00:32:24;;;;;;;8.00;4.83;;;17.80;99.90;;;;;;5076910;28;20468;-60
2023/07/24 00:34:52;;;;;;;5.67;5.17;;;17.80;99.90;;;;;;5076985;28;20511;-60
2023/07/24 00:37:19;;;;;;;6.20;4.60;;;17.80;99.90;;;;;;5076513;28;20544;-59
2023/07/24 00:39:46;;;;;;;7.80;4.73;;;17.80;99.90;;;;;;5076828;28;20489;-60
2023/07/24 00:42:13;;;;;;;6.50;4.43;;;17.80;99.90;;;;;;5077064;28;20947;-60
2023/07/24 00:44:41;;;;;;;6.47;4.20;;;17.80;99.90;;;;;;5076395;28;20432;-60
2023/07/24 00:47:10;;;;;;;6.10;4.77;;;17.80;99.90;;;;;;5076528;28;20824;-60
2023/07/24 00:49:54;;;;;;;5.20;4.70;;;17.80;99.90;;;;;;5076759;28;20477;-60
2023/07/24 00:52:21;;;;;;;6.50;4.50;;;17.80;99.90;;;;;;5075872;28;20486;-59
2023/07/24 00:54:49;;;;;;;5.73;4.70;;;17.70;99.90;;;;;;5076826;28;20493;-59
2023/07/24 00:57:17;;;;;;;6.27;5.30;;;17.80;99.90;;;;;;5075955;28;20939;-60
2023/07/24 00:59:45;;;;;;;4.93;4.20;;;17.80;99.90;;;;;;5076553;28;20893;-59
2023/07/24 01:02:14;;;;;;;6.93;4.40;;;17.80;99.90;;;;;;5076696;28;20889;-59
2023/07/24 01:04:42;;;;;;;6.93;5.00;;;17.80;99.90;;;;;;5077464;28;20885;-60
2023/07/24 01:07:10;;;;;;;4.57;4.13;;;17.80;99.90;;;;;;5077226;28;20461;-59
2023/07/24 01:09:37;;;;;;;5.00;3.90;;;17.80;99.90;;;;;;5077074;28;20816;-59
2023/07/24 01:12:11;;;;;;;5.20;4.60;;;17.80;99.90;;;;;;5076981;28;20886;-60
2023/07/24 01:14:45;;;;;;;5.33;4.83;;;17.80;99.90;;;;;;5077345;28;20779;-59
2023/07/24 01:17:17;;;;;;;6.33;4.90;;;17.80;99.90;;;;;;5077537;28;20496;-59
2023/07/24 01:19:48;;;;;;;6.83;4.37;;;17.70;99.90;;;;;;5076965;28;20575;-60
2023/07/24 01:22:25;;;;;;;9.07;5.30;;;17.70;99.90;;;;;;5076834;28;20461;-60
2023/07/24 01:25:07;;;;;;;6.07;4.70;;;17.70;99.90;;;;;;5076911;28;20475;-60
2023/07/24 01:27:36;;;;;;;9.83;5.80;;;17.70;99.90;;;;;;5076884;28;20461;-60
2023/07/24 01:30:03;;;;;;;6.73;5.20;;;17.70;99.90;;;;;;5076760;28;20905;-60
2023/07/24 01:32:30;;;;;;;6.47;5.80;;;17.70;99.90;;;;;;5076860;28;20819;-60
2023/07/24 01:34:57;;;;;;;7.00;5.73;;;17.70;99.90;;;;;;5076744;28;20467;-61
2023/07/24 01:37:26;;;;;;;7.50;4.30;;;17.70;99.90;;;;;;5077054;28;20546;-60
2023/07/24 01:39:56;;;;;;;5.30;4.70;;;17.70;99.90;;;;;;5077042;28;20556;-60
2023/07/24 01:42:24;;;;;;;6.00;5.43;;;17.70;99.90;;;;;;5076846;28;20765;-60
2023/07/24 01:44:54;;;;;;;6.17;5.57;;;17.70;99.90;;;;;;5076964;28;20753;-60
2023/07/24 01:47:22;;;;;;;6.33;5.07;;;17.70;99.90;;;;;;5076705;28;20465;-59
2023/07/24 01:49:49;;;;;;;7.23;4.80;;;17.70;99.90;;;;;;5077216;28;20857;-60
2023/07/24 01:52:17;;;;;;;7.53;5.47;;;17.70;99.90;;;;;;5076871;28;20538;-60
2023/07/24 01:54:44;;;;;;;6.20;5.30;;;17.70;99.90;;;;;;5076411;28;20524;-61
2023/07/24 01:57:11;;;;;;;6.20;5.63;;;17.80;99.90;;;;;;5076640;28;20489;-60
2023/07/24 01:59:38;;;;;;;5.80;5.20;;;17.80;99.90;;;;;;5076981;28;20436;-60
2023/07/24 02:02:07;;;;;;;6.00;5.37;;;17.80;99.90;;;;;;5076117;28;20534;-60
2023/07/24 02:04:34;;;;;;;5.93;5.10;;;17.80;99.90;;;;;;5076706;28;20772;-61
2023/07/24 02:07:01;;;;;;;6.97;4.90;;;17.80;99.90;;;;;;5076498;28;20563;-61
2023/07/24 02:09:28;;;;;;;8.53;5.33;;;17.80;99.90;;;;;;5076989;28;20462;-59
2023/07/24 02:11:56;;;;;;;5.20;4.67;;;17.70;99.90;;;;;;5076683;28;20764;-60
2023/07/24 02:14:24;;;;;;;8.00;5.60;;;17.70;99.90;;;;;;5076297;28;20495;-60
2023/07/24 02:16:51;;;;;;;6.20;5.60;;;17.70;99.90;;;;;;5076673;28;20493;-60
2023/07/24 02:19:20;;;;;;;5.87;5.37;;;17.70;99.90;;;;;;5076595;28;20544;-60
2023/07/24 02:21:47;;;;;;;7.73;5.47;;;17.60;99.90;;;;;;5078296;28;20579;-61
2023/07/24 02:24:14;;;;;;;6.30;5.70;;;17.60;99.90;;;;;;5079980;28;20478;-60
2023/07/24 02:26:41;;;;;;;5.73;5.17;;;17.60;99.90;;;;;;5080020;28;20889;-61
2023/07/24 02:29:08;;;;;;;7.43;6.43;;;17.60;99.90;;;;;;5080108;28;20461;-60
2023/07/24 02:31:36;;;;;;;7.00;5.93;;;17.60;99.90;;;;;;5079988;28;20470;-60
2023/07/24 02:34:03;;;;;;;6.40;5.80;;;17.60;99.90;;;;;;5079477;28;20496;-60
2023/07/24 02:36:37;;;;;;;6.80;6.00;;;17.60;99.90;;;;;;5079901;28;20497;-60
2023/07/24 02:39:05;;;;;;;6.40;5.17;;;17.60;99.90;;;;;;5079799;28;20474;-61
2023/07/24 02:41:32;;;;;;;6.50;5.87;;;17.60;99.90;;;;;;5080159;28;20890;-60
2023/07/24 02:43:59;;;;;;;6.80;5.20;;;17.60;99.90;;;;;;5079318;28;20463;-60
2023/07/24 02:46:26;;;;;;;7.10;6.30;;;17.60;99.90;;;;;;5079883;28;20464;-60
2023/07/24 02:48:54;;;;;;;5.97;5.37;;;17.60;99.90;;;;;;5079819;28;20802;-61
2023/07/24 02:51:21;;;;;;;7.03;6.33;;;17.60;99.90;;;;;;5080112;28;20544;-61
2023/07/24 02:53:50;;;;;;;6.87;6.07;;;17.60;99.90;;;;;;5079914;28;20467;-61
2023/07/24 02:56:17;;;;;;;6.97;6.13;;;17.60;99.90;;;;;;5079258;28;20486;-60
2023/07/24 02:58:44;;;;;;;6.13;5.33;;;17.60;99.90;;;;;;5079446;28;20496;-60
2023/07/24 03:01:13;;;;;;;8.43;6.03;;;17.70;99.90;;;;;;5079375;28;20543;-60
2023/07/24 03:03:41;;;;;;;7.00;6.30;;;17.70;99.90;;;;;;5078996;28;20461;-62
2023/07/24 03:06:08;;;;;;;9.23;6.13;;;17.70;99.90;;;;;;5078944;28;20501;-63
2023/07/24 03:08:36;;;;;;;7.23;6.10;;;17.60;99.90;;;;;;5079404;28;20559;-61
2023/07/24 03:11:07;;;;;;;6.30;5.47;;;17.60;99.90;;;;;;5079671;28;20468;-61
2023/07/24 03:13:34;;;;;;;7.67;6.33;;;17.60;99.90;;;;;;5079537;28;20463;-61
2023/07/24 03:16:02;;;;;;;7.60;6.03;;;17.60;99.90;;;;;;5078890;28;20490;-61
2023/07/24 03:18:29;;;;;;;12.93;6.93;;;17.60;99.90;;;;;;5079098;28;20559;-61
2023/07/24 03:20:58;;;;;;;8.47;6.37;;;17.50;99.90;;;;;;5078951;28;20481;-62
2023/07/24 03:23:26;;;;;;;6.43;5.77;;;17.60;99.90;;;;;;5458907;22;20461;-61
2023/07/24 03:25:53;;;;;;;9.13;6.70;;;17.60;99.90;;;;;;5059020;28;20469;-60
2023/07/24 03:28:21;;;;;;;7.93;6.80;;;17.50;99.90;;;;;;5058588;28;20501;-62
2023/07/24 03:30:49;;;;;;;6.77;6.17;;;17.50;99.90;;;;;;5058865;28;20883;-63
2023/07/24 03:33:17;;;;;;;6.57;5.87;;;17.50;99.90;;;;;;5058612;28;20507;-60
2023/07/24 03:35:44;;;;;;;7.27;5.87;;;17.40;99.90;;;;;;5059014;28;20464;-61
2023/07/24 03:38:11;;;;;;;10.17;6.50;;;17.50;99.90;;;;;;5058534;28;20464;-61
2023/07/24 03:40:39;;;;;;;9.17;6.63;;;17.40;99.90;;;;;;5058383;28;20462;-60
2023/07/24 03:43:06;;;;;;;8.17;6.13;;;17.50;99.90;;;;;;5058718;28;20962;-61
2023/07/24 03:45:35;;;;;;;7.40;5.60;;;17.40;99.90;;;;;;5058527;28;20454;-61
2023/07/24 03:48:02;;;;;;;6.70;6.00;;;17.50;99.90;;;;;;5058184;28;20547;-61
2023/07/24 03:50:30;;;;;;;9.63;6.20;;;17.40;99.90;;;;;;5058028;28;20567;-61
2023/07/24 03:52:57;;;;;;;8.90;6.50;;;17.40;99.90;;;;;;5058225;28;20508;-61
2023/07/24 03:55:25;;;;;;;6.00;5.40;;;17.40;99.90;;;;;;5058410;28;20522;-61
2023/07/24 03:57:52;;;;;;;8.70;6.30;;;17.40;99.90;;;;;;5058542;28;20459;-62
2023/07/24 04:00:19;;;;;;;10.17;6.03;;;17.40;99.90;;;;;;5058290;28;20734;-62
2023/07/24 04:02:48;;;;;;;8.40;6.33;;;17.40;99.90;;;;;;5057892;28;20470;-62
2023/07/24 04:05:15;;;;;;;8.07;6.10;;;17.40;99.90;;;;;;5058118;28;20462;-61
2023/07/24 04:07:42;;;;;;;7.87;6.50;;;17.40;99.90;;;;;;5058526;28;20437;-62
2023/07/24 04:10:10;;;;;;;7.10;6.17;;;17.40;99.90;;;;;;5372940;22;20521;-62
2023/07/24 04:12:37;;;;;;;8.20;6.50;;;17.40;99.90;;;;;;5077646;28;20438;-61
2023/07/24 04:15:05;;;;;;;8.40;6.50;;;17.40;99.90;;;;;;5077615;28;20584;-61
2023/07/24 04:17:32;;;;;;;10.97;6.90;;;17.50;99.90;;;;;;5078236;28;20718;-61
2023/07/24 04:20:01;;;;;;;9.50;6.40;;;17.40;99.90;;;;;;5078234;28;20515;-62
2023/07/24 04:22:28;;;;;;;8.43;6.87;;;17.50;99.90;;;;;;5077898;28;20534;-61
2023/07/24 04:24:55;;;;;;;8.50;6.33;;;17.40;99.90;;;;;;5077775;28;20457;-61
2023/07/24 04:27:22;;;;;;;9.60;6.67;;;17.50;99.90;;;;;;5077635;28;20435;-61
2023/07/24 04:29:50;;;;;;;9.30;6.77;;;17.50;99.90;;;;;;5077640;28;20465;-61
2023/07/24 04:32:17;;;;;;;11.60;6.67;;;17.50;99.90;;;;;;5077875;28;20460;-61
2023/07/24 04:34:44;;;;;;;7.73;6.40;;;17.40;99.90;;;;;;5077728;28;20482;-60
2023/07/24 04:37:13;;;;;;;13.23;6.53;;;17.40;99.90;;;;;;5077074;28;20468;-61
2023/07/24 04:39:40;;;;;;;6.60;5.90;;;17.50;99.90;;;;;;5062307;28;20460;-61
2023/07/24 04:42:07;;;;;;;7.00;5.93;;;17.40;99.90;;;;;;5056408;28;20821;-60
2023/07/24 04:44:35;;;;;;;9.67;6.00;;;17.40;99.90;;;;;;5055368;28;20484;-61
2023/07/24 04:47:02;;;;;;;8.33;6.03;;;17.50;99.90;;;;;;5055857;28;20475;-61
2023/07/24 04:49:30;;;;;;;7.13;6.43;;;17.50;99.90;;;;;;5054419;28;20472;-60
2023/07/24 04:51:57;;;;;;;7.47;6.70;;;17.50;99.90;;;;;;5055960;28;21043;-61
2023/07/24 04:54:26;;;;;;;7.00;6.00;;;17.50;99.90;;;;;;5056119;28;20849;-60
2023/07/24 04:56:53;;;;;;;7.00;5.33;;;17.50;99.90;;;;;;5056686;28;20494;-61
2023/07/24 04:59:21;;;;;;;7.20;5.97;;;17.50;99.90;;;;;;5055655;28;20858;-60
2023/07/24 05:01:48;;;;;;;7.97;6.30;;;17.50;99.90;;;;;;5055386;28;20433;-61
2023/07/24 05:04:17;;;;;;;11.00;6.40;;;17.60;99.90;;;;;;5055921;28;20810;-61
2023/07/24 05:06:44;;;;;;;8.97;5.83;;;17.60;99.90;;;;;;5056078;28;20477;-61
2023/07/24 05:09:11;;;;;;;6.67;6.00;;;17.60;99.90;;;;;;5055420;28;20564;-61
2023/07/24 05:11:40;;;;;;;7.50;6.57;;;17.60;99.90;;;;;;5055196;28;20589;-61
2023/07/24 05:14:07;;;;;;;7.70;6.10;;;17.60;99.90;;;;;;5056690;28;20463;-61
2023/07/24 05:16:34;;;;;;;7.10;6.40;;;17.60;99.90;;;;;;5057335;28;20993;-62
2023/07/24 05:19:01;;;;;;;7.53;6.20;;;17.50;99.90;;;;;;5057187;28;20482;-61
2023/07/24 05:21:28;;;;;;;8.00;7.20;;;17.50;99.90;;;;;;5057316;28;20458;-61
2023/07/24 05:23:56;;;;;;;7.90;6.53;;;17.60;99.90;;;;;;5057146;28;20464;-61
2023/07/24 05:29:00;;;;;;;8.77;6.27;;;17.60;99.90;;;;;;5145507;22;20893;-58
2023/07/24 05:31:27;;;;;;;7.10;6.37;;;17.60;99.90;;;;;;5067280;28;20477;-58
2023/07/24 05:33:54;;;;;;;7.63;6.73;;;17.60;99.90;;;;;;5056885;28;20490;-57
2023/07/24 05:36:21;;;;;;;7.47;6.53;;;17.60;99.90;;;;;;5056645;28;20525;-57
2023/07/24 05:38:48;;;;;;;13.47;6.80;;;17.60;99.90;;;;;;5056678;28;20875;-58
2023/07/24 05:41:16;;;;;;;9.30;6.73;;;17.60;99.90;;;;;;5056968;28;20466;-58
2023/07/24 05:43:43;;;;;;;8.30;6.77;;;17.60;99.90;;;;;;5056170;28;20455;-60
2023/07/24 05:46:11;;;;;;;7.70;6.67;;;17.60;99.90;;;;;;5056935;28;20454;-59
2023/07/24 05:48:39;;;;;;;7.37;6.60;;;17.60;99.90;;;;;;5056859;28;20969;-58
2023/07/24 05:51:06;;;;;;;7.70;6.90;;;17.60;99.90;;;;;;5056190;28;20556;-57
2023/07/24 05:53:33;;;;;;;8.20;6.27;;;17.60;99.90;;;;;;5057012;28;20752;-58
2023/07/24 05:56:01;;;;;;;8.03;7.00;;;17.60;99.90;;;;;;5058715;28;20493;-58
2023/07/24 05:58:28;;;;;;;11.57;8.17;;;17.60;99.90;;;;;;5515668;22;20456;-58
2023/07/24 06:00:56;;;;;;;8.37;6.90;;;17.50;99.90;;;;;;5069143;28;20531;-61
2023/07/24 06:03:25;;;;;;;9.43;7.37;;;17.60;99.90;;;;;;5060586;28;20447;-61
2023/07/24 06:05:53;;;;;;;8.23;7.30;;;17.60;99.90;;;;;;5060545;28;20761;-60
2023/07/24 06:08:21;;;;;;;9.23;8.33;;;17.60;99.90;;;;;;5060524;28;20462;-60
2023/07/24 06:10:49;;;;;;;9.20;7.67;;;17.60;99.90;;;;;;5060724;28;20483;-60
2023/07/24 06:13:16;;;;;;;10.50;7.00;;;17.60;99.90;;;;;;5059819;28;20436;-60
2023/07/24 06:15:43;;;;;;;9.60;6.63;;;17.60;99.90;;;;;;5060168;28;20584;-59
2023/07/24 06:18:11;;;;;;;10.03;7.93;;;17.70;99.90;;;;;;5066043;28;20440;-59
2023/07/24 06:20:40;;;;;;;8.47;7.30;;;17.70;99.90;;;;;;5068260;28;20462;-60
2023/07/24 06:23:07;;;;;;;8.00;6.83;;;17.70;99.90;;;;;;5060108;28;20484;-58
2023/07/24 06:25:34;;;;;;;9.20;7.87;;;17.60;99.90;;;;;;5059838;28;20473;-58
2023/07/24 06:28:03;;;;;;;8.77;7.10;;;17.60;99.90;;;;;;5068588;28;20471;-58
2023/07/24 06:30:30;;;;;;;11.03;7.60;;;17.60;99.90;;;;;;5066840;28;20500;-59
2023/07/24 06:32:57;;;;;;;8.67;7.00;;;17.70;99.90;;;;;;5058289;28;20486;-58
2023/07/24 06:35:24;;;;;;;7.40;6.20;;;17.80;99.90;;;;;;5057770;28;20898;-58
2023/07/24 06:37:53;;;;;;;8.90;7.13;;;18.00;99.90;;;;;;5058805;28;20485;-59
2023/07/24 06:40:20;;;;;;;9.93;7.60;;;18.10;99.90;;;;;;5058048;28;20462;-57
2023/07/24 06:42:47;;;;;;;8.60;7.17;;;18.10;99.90;;;;;;5058461;28;20826;-59
2023/07/24 06:45:15;;;;;;;7.77;6.97;;;18.30;99.90;;;;;;5058194;28;20842;-58
2023/07/24 06:47:42;;;;;;;8.73;7.23;;;18.60;99.90;;;;;;5058066;28;20436;-58
2023/07/24 06:50:09;;;;;;;9.37;7.30;;;18.90;99.90;;;;;;5057892;28;20526;-60
2023/07/24 06:52:36;;;;;;;8.60;7.10;;;19.10;1.00;;;;;;5057316;28;20486;-59
2023/07/24 06:55:06;;;;;;;7.20;5.73;;;19.00;1.00;;;;;;5057805;28;20493;-61
2023/07/24 06:57:33;;;;;;;7.33;5.80;;;19.00;99.90;;;;;;5057422;28;20548;-59
2023/07/24 07:00:00;;;;;;;8.80;5.93;;;19.00;99.90;;;;;;5059189;28;20576;-61
2023/07/24 07:02:28;;;;;;;7.03;6.23;;;19.00;33.80;;;;;;5059449;28;20502;-59
2023/07/24 07:04:55;;;;;;;8.80;6.30;;;19.00;4.10;;;;;;5059358;28;20436;-61
2023/07/24 07:07:22;;;;;;;7.67;6.60;;;19.10;65.40;;;;;;5058114;28;20486;-59
2023/07/24 07:09:50;;;;;;;7.43;6.07;;;19.30;1.00;;;;;;5059245;28;20469;-61
2023/07/24 07:12:19;;;;;;;8.90;6.53;;;19.50;9.40;;;;;;5059404;28;20500;-60
2023/07/24 07:14:46;;;;;;;7.20;6.13;;;19.70;1.00;;;;;;5059137;28;20865;-61
2023/07/24 07:17:13;;;;;;;8.37;5.70;;;19.70;1.00;;;;;;5058801;28;20981;-60
2023/07/24 07:19:40;;;;;;;9.03;6.83;;;19.60;99.90;;;;;;5058921;28;20532;-62
2023/07/24 07:22:08;;;;;;;9.23;5.77;;;19.50;1.00;;;;;;5059324;28;20790;-60
2023/07/24 07:24:35;;;;;;;9.03;5.57;;;19.60;1.00;;;;;;5058949;28;20472;-62
2023/07/24 07:27:02;;;;;;;9.43;6.33;;;19.60;1.00;;;;;;5058613;28;20433;-60
2023/07/24 07:29:31;;;;;;;8.10;5.50;;;19.70;1.00;;;;;;5059166;28;20468;-61
2023/07/24 07:31:59;;;;;;;7.37;5.80;;;19.70;1.00;;;;;;5058600;28;20463;-61
2023/07/24 07:34:26;;;;;;;7.93;5.97;;;19.80;1.00;;;;;;5072498;28;20477;-63
2023/07/24 07:36:53;;;;;;;6.80;5.60;;;19.90;1.00;;;;;;5078958;28;20493;-62
2023/07/24 07:39:20;;;;;;;6.77;5.47;;;20.00;1.00;;;;;;5078242;28;20485;-60
2023/07/24 07:41:48;;;;;;;6.97;5.47;;;20.00;99.90;;;;;;5078621;28;20462;-65
2023/07/24 07:44:15;;;;;;;5.63;4.83;;;19.80;99.90;;;;;;5078693;28;20519;-62
2023/07/24 07:46:44;;;;;;;7.40;5.03;;;19.70;1.00;;;;;;5078562;28;20471;-62
2023/07/24 07:49:11;;;;;;;6.10;4.97;;;19.90;1.00;;;;;;5078629;28;20882;-62
2023/07/24 07:51:38;;;;;;;6.60;5.23;;;20.00;99.90;;;;;;5078473;28;20461;-63
2023/07/24 07:54:06;;;;;;;6.87;5.10;;;20.00;99.90;;;;;;5078237;28;20435;-64
2023/07/24 07:56:33;;;;;;;7.73;5.27;;;20.00;99.90;;;;;;5078075;28;20533;-62
2023/07/24 07:59:00;;;;;;;6.47;5.80;;;19.90;99.90;;;;;;5077996;28;20524;-63
2023/07/24 08:01:27;;;;;;;6.57;5.40;;;20.00;99.90;;;;;;5078569;28;20495;-63
2023/07/24 08:03:56;;;;;;;6.50;5.17;;;20.30;99.90;;;;;;5078516;28;20882;-61
2023/07/24 08:06:24;;;;;;;9.30;5.20;;;20.60;99.90;;;;;;5077751;28;20492;-63
2023/07/24 08:08:51;;;;;;;6.60;5.37;;;21.10;19.20;;;;;;5078413;28;20939;-62
2023/07/24 08:11:18;;;;;;;5.67;4.93;;;21.40;1.00;;;;;;5063302;28;20565;-63
2023/07/24 08:13:46;;;;;;;5.20;4.20;;;21.60;1.00;;;;;;5057959;28;20462;-63
2023/07/24 08:16:18;;;;;;;4.80;4.30;;;21.60;99.90;;;;;;5057800;28;20479;-66
2023/07/24 08:18:46;;;;;;;5.80;5.00;;;21.60;99.90;;;;;;5056445;28;20466;-61
2023/07/24 08:21:16;;;;;;;5.50;4.67;;;21.50;99.90;;;;;;5058160;28;20883;-69
2023/07/24 08:23:43;;;;;;;6.80;4.53;;;21.30;99.90;;;;;;5057989;28;20469;-68
2023/07/24 08:26:10;;;;;;;6.23;5.10;;;20.90;99.90;;;;;;5057903;28;20861;-66
2023/07/24 08:28:41;;;;;;;5.20;4.07;;;20.70;99.90;;;;;;5057925;28;20472;-67
2023/07/24 08:31:09;;;;;;;4.80;3.90;;;20.70;99.90;;;;;;5057552;28;20913;-65
2023/07/24 08:33:36;;;;;;;4.67;3.80;;;20.70;99.90;;;;;;5057661;28;20487;-65
2023/07/24 08:36:05;;;;;;;6.93;4.80;;;20.60;99.90;;;;;;5057472;28;20731;-68
2023/07/24 08:38:34;;;;;;;6.10;5.00;;;21.00;99.90;;;;;;5057890;28;20458;-67
2023/07/24 08:41:07;;;;;;;6.27;5.07;;;21.30;99.90;;;;;;5057690;28;20739;-65
2023/07/24 08:43:37;;;;;;;5.20;4.70;;;21.40;99.90;;;;;;5057617;28;20551;-64
2023/07/24 08:46:05;;;;;;;5.30;4.80;;;21.90;99.90;;;;;;5057325;28;20448;-65
2023/07/24 08:48:35;;;;;;;6.60;4.50;;;22.10;1.00;;;;;;5057581;28;20444;-64
2023/07/24 08:51:03;;;;;;;5.50;4.70;;;22.10;1.00;;;;;;5057470;28;20509;-66
2023/07/24 08:53:33;;;;;;;4.80;4.30;;;22.00;1.00;;;;;;5057568;28;20486;-63
2023/07/24 08:56:01;;;;;;;4.50;4.10;;;21.60;1.00;;;;;;5057405;28;20554;-63
2023/07/24 08:58:29;;;;;;;4.40;4.00;;;21.70;1.00;;;;;;5060201;28;20584;-62
2023/07/24 09:00:57;;;;;;;6.07;4.27;;;22.00;99.90;;;;;;5057269;28;20535;-62
2023/07/24 09:03:25;;;;;;;5.47;4.97;;;22.20;72.80;;;;;;5060222;28;20486;-62
2023/07/24 09:05:52;;;;;;;5.10;4.60;;;22.20;1.00;;;;;;5058717;28;20490;-64
2023/07/24 09:08:30;;;;;;;6.00;4.50;;;22.00;1.00;;;;;;5058813;28;20867;-61
2023/07/24 09:10:59;;;;;;;5.20;4.70;;;22.20;1.00;;;;;;5056514;28;20466;-61
2023/07/24 09:13:27;;;;;;;5.53;4.50;;;22.50;1.00;;;;;;5056730;28;20433;-60
2023/07/24 09:15:55;;;;;;;5.20;4.70;;;22.50;1.00;;;;;;5057084;28;20871;-61
2023/07/24 09:18:23;;;;;;;5.57;4.60;;;22.30;1.00;;;;;;5057441;28;20494;-61
2023/07/24 09:20:50;;;;;;;5.77;4.63;;;22.00;1.00;;;;;;5056196;28;20537;-61
2023/07/24 09:23:27;;;;;;;6.83;4.47;;;21.90;1.00;;;;;;5056218;28;20489;-60
2023/07/24 09:25:54;;;;;;;5.10;4.53;;;21.90;1.00;;;;;;5056713;28;20560;-61
2023/07/24 09:28:23;;;;;;;5.00;4.60;;;21.70;1.00;;;;;;5058728;28;20553;-61
2023/07/24 09:30:55;;;;;;;5.00;4.50;;;21.60;38.10;;;;;;5075833;28;20851;-60
2023/07/24 09:33:23;;;;;;;6.60;5.47;;;21.60;64.20;;;;;;5062333;28;20465;-59
2023/07/24 09:36:00;;;;;;;6.30;5.50;;;21.30;61.30;;;;;;5077430;28;20460;-61
2023/07/24 09:38:28;;;;;;;6.50;5.80;;;21.10;99.90;;;;;;5060618;28;20500;-60
2023/07/24 09:40:56;;;;;;;7.03;5.53;;;21.00;99.90;;;;;;5060932;28;20458;-61
2023/07/24 09:43:26;;;;;;;6.90;5.57;;;20.90;99.90;;;;;;5061259;28;20509;-61
2023/07/24 09:45:54;;;;;;;6.73;6.03;;;20.80;1.00;;;;;;5061498;28;20464;-61
2023/07/24 09:48:23;;;;;;;6.97;5.60;;;20.50;1.00;;;;;;5061234;28;20458;-63
2023/07/24 09:50:53;;;;;;;5.90;5.30;;;20.50;99.90;;;;;;5063331;28;20908;-58
2023/07/24 09:53:25;;;;;;;6.70;6.00;;;20.50;99.90;;;;;;5060361;28;20512;-58
2023/07/24 09:55:59;;;;;;;6.50;5.70;;;20.40;99.90;;;;;;5060795;28;20476;-58
2023/07/24 09:58:29;;;;;;;7.30;5.90;;;20.60;1.00;;;;;;5058861;28;20588;-59
2023/07/24 10:00:57;;;;;;;5.90;5.37;;;20.60;1.00;;;;;;5060192;28;20492;-60
2023/07/24 10:03:24;;;;;;;6.93;6.20;;;20.60;99.90;;;;;;5060347;28;20519;-60
2023/07/24 10:05:58;;;;;;;6.00;4.93;;;20.40;99.90;;;;;;5060754;28;20505;-59
2023/07/24 10:08:26;;;;;;;6.87;5.60;;;20.30;99.90;;;;;;5060136;28;20458;-60
2023/07/24 10:10:53;;;;;;;7.93;5.60;;;20.30;99.90;;;;;;5060687;28;20466;-60
2023/07/24 10:13:22;;;;;;;6.20;5.60;;;20.20;99.90;;;;;;5058979;28;20473;-59
2023/07/24 10:15:51;;;;;;;7.37;6.67;;;20.20;1.00;;;;;;5059427;28;20501;-61
2023/07/24 10:18:26;;;;;;;7.77;6.10;;;20.20;1.00;;;;;;5058804;28;20490;-61
2023/07/24 10:21:02;;;;;;;7.03;5.90;;;20.30;1.00;;;;;;5058827;28;20803;-61
2023/07/24 10:23:29;;;;;;;6.00;5.10;;;20.30;1.00;;;;;;5068326;28;20469;-60
2023/07/24 10:25:57;;;;;;;6.50;5.47;;;20.50;1.00;;;;;;5078891;28;20461;-61
2023/07/24 10:28:32;;;;;;;6.13;5.53;;;20.80;1.00;;;;;;5078434;28;20523;-61
2023/07/24 10:31:04;;;;;;;6.93;5.80;;;20.90;99.90;;;;;;5078575;28;20465;-60
2023/07/24 10:33:32;;;;;;;7.23;5.80;;;20.90;99.90;;;;;;5079192;28;20934;-61
2023/07/24 10:36:08;;;;;;;6.50;5.30;;;21.00;99.90;;;;;;5079172;28;20453;-60
2023/07/24 10:38:36;;;;;;;5.87;5.27;;;21.20;99.90;;;;;;5079891;28;20959;-63
2023/07/24 10:41:05;;;;;;;5.93;5.20;;;21.30;99.90;;;;;;5079509;28;20500;-64
2023/07/24 10:43:42;;;;;;;7.00;5.43;;;21.50;1.00;;;;;;5079463;28;20893;-61
2023/07/24 10:46:11;;;;;;;7.30;5.40;;;21.60;20.80;;;;;;5079948;28;20496;-62
2023/07/24 10:48:39;;;;;;;5.07;4.30;;;21.60;1.00;;;;;;5079354;28;20894;-64
2023/07/24 10:51:11;;;;;;;6.13;5.13;;;21.90;1.00;;;;;;5079962;28;20461;-62
2023/07/24 10:53:45;;;;;;;5.53;5.03;;;21.90;1.00;;;;;;5079633;28;20564;-63
2023/07/24 10:56:12;;;;;;;6.10;4.70;;;22.00;1.00;;;;;;5079781;28;20796;-65
2023/07/24 10:58:39;;;;;;;7.03;5.43;;;21.90;99.90;;;;;;5078978;28;20555;-64
2023/07/24 11:01:08;;;;;;;5.07;4.60;;;21.80;99.90;;;;;;5079700;28;20468;-65
2023/07/24 11:03:40;;;;;;;4.90;4.50;;;21.70;1.00;;;;;;5079782;28;20517;-64
2023/07/24 11:06:14;;;;;;;4.70;4.20;;;21.90;1.00;;;;;;5079084;28;20515;-67
2023/07/24 11:08:42;;;;;;;4.83;4.33;;;21.90;99.90;;;;;;5079874;28;20906;-66
2023/07/24 11:11:12;;;;;;;4.70;4.30;;;22.00;1.00;;;;;;5079684;28;20493;-66
2023/07/24 11:13:39;;;;;;;5.37;4.47;;;22.00;99.90;;;;;;5079239;28;20501;-63
2023/07/24 11:16:09;;;;;;;4.63;4.23;;;22.20;1.00;;;;;;5078329;28;20465;-66
2023/07/24 11:18:48;;;;;;;4.87;4.43;;;22.50;99.90;;;;;;5077443;28;20542;-66
2023/07/24 11:21:16;;;;;;;4.17;3.77;;;23.20;99.90;;;;;;5077647;28;20492;-67
2023/07/24 11:23:50;;;;;;;4.83;4.10;;;24.00;93.10;;;;;;5078331;28;20463;-66
2023/07/24 11:26:21;;;;;;;4.50;4.00;;;24.30;1.00;;;;;;5077605;28;20878;-66
2023/07/24 11:28:48;;;;;;;3.70;3.33;;;24.10;99.90;;;;;;5078142;28;20462;-67
2023/07/24 11:31:19;;;;;;;4.33;3.60;;;23.70;99.90;;;;;;5077507;28;20532;-68
2023/07/24 11:33:48;;;;;;;5.20;3.80;;;23.40;99.90;;;;;;5077351;28;20472;-67
2023/07/24 11:36:16;;;;;;;4.60;4.20;;;22.70;99.90;;;;;;5078018;28;20461;-66
2023/07/24 11:38:45;;;;;;;5.17;4.67;;;22.40;99.90;;;;;;5078540;28;20585;-66
2023/07/24 11:41:14;;;;;;;6.40;3.90;;;22.20;1.00;;;;;;5078907;28;20947;-66
2023/07/24 11:43:47;;;;;;;3.83;3.50;;;21.80;1.00;;;;;;5078684;28;20462;-66
2023/07/24 11:46:24;;;;;;;5.43;4.83;;;21.50;66.30;;;;;;5078809;28;20946;-70
2023/07/24 11:48:56;;;;;;;5.50;4.70;;;21.20;99.90;;;;;;5078890;28;20457;-61
2023/07/24 11:51:25;;;;;;;6.73;3.93;;;20.80;1.00;;;;;;5078679;28;20465;-61
2023/07/24 11:53:53;;;;;;;5.80;4.70;;;20.60;54.90;;;;;;5078715;28;20467;-60
2023/07/24 11:56:21;;;;;;;5.30;4.50;;;20.50;99.90;;;;;;5078350;28;20461;-58
2023/07/24 11:58:49;;;;;;;7.20;4.70;;;20.40;99.90;;;;;;5077221;28;20595;-58
2023/07/24 12:01:16;;;;;;;8.83;4.80;;;20.40;1.00;;;;;;5077778;28;20461;-59
2023/07/24 12:03:43;;;;;;;7.90;4.87;;;20.20;1.00;;;;;;5078447;28;20518;-59
2023/07/24 12:06:17;;;;;;;6.17;2.87;;;19.90;1.00;;;;;;5078017;28;20913;-64
2023/07/24 12:08:46;;;;;;;4.20;2.40;;;18.40;99.90;;;;;;5078134;28;20461;-62
2023/07/24 12:11:26;;;;;;;2.73;2.10;;;17.30;1.00;;;;;;5379682;22;21571;-61
2023/07/24 12:13:54;;;;;;;3.40;1.53;;;16.50;1.00;;;;;;5098195;28;20456;-62
2023/07/24 12:16:21;;;;;;;4.10;2.43;;;16.20;1.00;;;;;;5097549;28;20465;-60
2023/07/24 12:18:49;;;;;;;4.73;2.50;;;16.00;34.50;;;;;;5098523;28;20547;-68
2023/07/24 12:21:18;;;;;;;4.40;2.30;;;15.90;99.90;;;;;;5097874;28;20495;-61
2023/07/24 12:23:45;;;;;;;3.70;2.53;;;16.10;1.00;;;;;;5098720;28;20554;-59
2023/07/24 12:28:50;;;;;;;2.90;2.20;;;16.40;5.50;;;;;;5296174;22;20459;-60
2023/07/24 12:31:18;;;;;;;2.77;2.07;;;16.70;1.00;;;;;;5078124;28;20873;-56
2023/07/24 12:33:45;;;;;;;2.30;1.80;;;17.00;1.00;;;;;;5078275;28;20499;-57
2023/07/24 12:36:12;;;;;;;3.50;2.30;;;17.30;99.90;;;;;;5077535;28;20575;-59
2023/07/24 12:38:41;;;;;;;3.80;2.40;;;17.80;99.90;;;;;;5077663;28;20529;-60
2023/07/24 12:41:08;;;;;;;4.10;2.57;;;18.50;99.90;;;;;;5077521;28;20564;-60
2023/07/24 12:43:35;;;;;;;3.33;2.30;;;18.90;1.00;;;;;;5417668;22;20958;-57
2023/07/24 12:46:03;;;;;;;3.60;2.53;;;19.60;44.90;;;;;;5056092;28;20462;-57
2023/07/24 12:48:31;;;;;;;4.70;2.33;;;20.40;99.90;;;;;;5058371;28;20458;-58
2023/07/24 12:50:59;;;;;;;3.57;2.10;;;20.70;99.90;;;;;;5073896;28;20461;-58
2023/07/24 12:53:27;;;;;;;3.30;2.33;;;20.50;99.90;;;;;;5057560;28;20470;-58
2023/07/24 12:55:56;;;;;;;3.17;2.20;;;20.60;99.90;;;;;;5059008;28;20825;-59
2023/07/24 12:58:23;;;;;;;3.37;2.80;;;20.70;1.00;;;;;;5076488;28;20618;-59